Straw, Montana
Current Conditions -  °F | °C
As of 12:54 PM on Saturday 20 Dec 2014 (Local Time) from KLWT Reporting Station
Broken Clouds Broken Clouds  
Wind Chill: 35°   Ceiling: 11000
Heat Index: 42°   Visibility: 10mi
Dew Point: 23°   Wind: 14mph
Humidity: 47%   Direction: 250°WSW
Pressure: 29.8"   Gusts: NA
Location:  46.8407°N, 109.712°W
Report Text: KLWT 201954Z AUTO 25012KT 10SM BKN110 06/M05 A2980 RMK AO2 SLP100 T00561050
Loading
Personal Weather Stations






























Interactive Weather Map New forecast layout! Learn more

10-Day Weather Forecast

Advertisements
Track Severe Weather on mobile